Coronel Enrique Soto Cano Air Base
MHSC : now visible

Airfield :











YOU CAN JOIN US ON...

 
LOGIN :

Register | Disclaimer

   EN    FR    IT 

 









Legend :    VFR   Marginal VFR   IFR   Intensive IFR   Very Intensive IFR
Visi :
Ceiling :
>= 8 km
>= 3000ft
5 to 8 km
1000 to 3000 ft
1500m to 5 km
500 to 1000 ft
800 to 1500m
200 to 500 ft
< 800m
< 200 ft
Symbols :   Thunderstorms  Fog  Heavy snow  Heavy precipitations  Wind > 20 kt






- Airport Elevation : 2061 ft
- IATA code : XPL


MHSC - Coronel Enrique Soto Cano Air Base

CURRENT METAR :
  • 261058Z AUTO 04004KT 9999 SCT075 20/20 A3003 RMK AO2 SLP132 T01990199 PNO FZRANO TSNO $

EXPIRED METARs :
  • 261018Z AUTO 02005KT 9999 SCT002 20/20 A3002 RMK AO2 SLP128 PNO FZRANO TSNO $
  • 260958Z AUTO 01005KT 9999 SCT001 19/19 A3002 RMK AO2 SLP128 T01940194 PNO FZRANO TSNO $
  • 260858Z AUTO 15005KT 9999 FEW200 20/20 A3002 RMK AO2 SLP126 T02040204 55006 PNO FZRANO TSNO $

Expired Forecast.
MHTG FIR / North America



MET'MAP, your aeronautical weather chart ! - Copyright ORBIFLY December 2007 - Disclaimer

ORBIFLY MET'MAP TEAM :

Programming & Development : Alexandra Zaïnal
Concept & original design : Baudouin d'Aumeries
Assistance for programming : Marc-Olivier Méhu
Technical & hardware support : Manuel Goepfert

Contact : metmap@orbifly.com




SOURCES & CREDITS :

   NOAA       Earth
Advisory